Time;durP1;ratioP1;P1;durP2;ratioP2;P2;SDS_P1;SDS_P2;PMS_P1;PMS_P2;Temp;Humidity;BMP_temperature;BMP_pressure;BME280_temperature;BME280_humidity;BME280_pressure;Samples;Min_cycle;Max_cycle;Signal;HPM_P1;HPM_P2
2022/03/01 00:01:34;;;;;;;1.13;0.50;;;;;;;;;;5069701;28;20033;-72
2022/03/01 00:04:00;;;;;;;1.23;0.47;;;;;;;;;;5069142;28;20391;-72
2022/03/01 00:06:27;;;;;;;4.90;0.67;;;;;;;;;;5072667;28;20020;-71
2022/03/01 00:08:54;;;;;;;3.07;0.70;;;;;;;;;;5074837;28;20430;-67
2022/03/01 00:11:23;;;;;;;3.20;0.70;;;;;;;;;;5074901;28;20054;-73
2022/03/01 00:13:50;;;;;;;1.73;0.60;;;;;;;;;;5074638;28;20082;-71
2022/03/01 00:16:19;;;;;;;2.50;0.77;;;;;;;;;;5074457;28;20025;-72
2022/03/01 00:18:47;;;;;;;6.10;0.90;;;;;;;;;;5051433;28;20379;-70
2022/03/01 00:21:13;;;;;;;1.87;0.63;;;;;;;;;;5085414;28;20422;-70
2022/03/01 00:23:40;;;;;;;6.33;1.10;;;;;;;;;;5089738;28;20456;-70
2022/03/01 00:26:07;;;;;;;3.23;0.80;;;;;;;;;;5088515;28;20100;-70
2022/03/01 00:28:33;;;;;;;3.63;1.13;;;;;;;;;;5073430;28;20043;-69
2022/03/01 00:31:00;;;;;;;3.37;1.20;;;;;;;;;;5075410;28;20013;-69
2022/03/01 00:33:27;;;;;;;2.70;1.13;;;;;;;;;;5074405;28;20047;-69
2022/03/01 00:35:53;;;;;;;3.73;0.90;;;;;;;;;;5074280;28;20420;-69
2022/03/01 00:38:20;;;;;;;8.93;2.50;;;;;;;;;;5073504;28;20078;-70
2022/03/01 00:40:47;;;;;;;3.47;1.00;;;;;;;;;;5071507;28;20561;-69
2022/03/01 00:43:14;;;;;;;6.40;0.90;;;;;;;;;;5069197;28;20078;-69
2022/03/01 00:45:40;;;;;;;3.10;1.30;;;;;;;;;;5069290;28;20024;-69
2022/03/01 00:48:07;;;;;;;4.77;1.37;;;;;;;;;;5068767;28;20029;-70
2022/03/01 00:50:34;;;;;;;5.37;1.33;;;;;;;;;;5071221;28;20024;-69
2022/03/01 00:53:00;;;;;;;2.30;1.10;;;;;;;;;;5073612;28;20024;-69
2022/03/01 00:55:27;;;;;;;6.93;1.30;;;;;;;;;;5074175;28;20021;-69
2022/03/01 00:57:54;;;;;;;4.87;0.90;;;;;;;;;;5073744;28;20573;-69
2022/03/01 01:00:21;;;;;;;3.40;0.80;;;;;;;;;;5073924;28;20025;-69
2022/03/01 01:02:48;;;;;;;3.13;0.63;;;;;;;;;;5071465;28;20033;-69
2022/03/01 01:05:15;;;;;;;2.00;0.80;;;;;;;;;;5068650;28;20025;-69
2022/03/01 01:07:42;;;;;;;5.90;1.40;;;;;;;;;;5068438;28;20032;-69
2022/03/01 01:10:09;;;;;;;9.13;1.60;;;;;;;;;;5067970;28;20089;-69
2022/03/01 01:12:37;;;;;;;5.20;1.07;;;;;;;;;;5070379;28;20499;-69
2022/03/01 01:15:05;;;;;;;3.40;1.17;;;;;;;;;;5073475;28;20185;-69
2022/03/01 01:17:32;;;;;;;2.90;1.23;;;;;;;;;;5073295;28;20035;-69
2022/03/01 01:19:58;;;;;;;2.93;1.33;;;;;;;;;;5073366;28;20029;-69
2022/03/01 01:22:40;;;;;;;3.13;1.47;;;;;;;;;;5073370;28;20107;-69
2022/03/01 01:25:12;;;;;;;3.73;1.40;;;;;;;;;;5071108;28;20028;-69
2022/03/01 01:27:43;;;;;;;3.33;1.00;;;;;;;;;;5067533;28;20570;-71
2022/03/01 01:30:11;;;;;;;3.60;1.37;;;;;;;;;;5068055;28;20043;-70
2022/03/01 01:32:38;;;;;;;5.17;1.00;;;;;;;;;;5068222;28;20036;-70
2022/03/01 01:35:05;;;;;;;8.07;1.80;;;;;;;;;;5070358;28;20031;-70
2022/03/01 01:37:32;;;;;;;3.83;1.30;;;;;;;;;;5072242;28;20024;-71
2022/03/01 01:39:59;;;;;;;7.13;1.37;;;;;;;;;;5073167;28;20051;-70
2022/03/01 01:42:25;;;;;;;4.57;1.80;;;;;;;;;;5073048;28;20051;-70
2022/03/01 01:44:52;;;;;;;3.33;1.60;;;;;;;;;;5072804;28;20052;-71
2022/03/01 01:47:19;;;;;;;6.73;1.77;;;;;;;;;;5070306;28;20032;-71
2022/03/01 01:49:46;;;;;;;7.03;1.73;;;;;;;;;;5067753;28;20033;-72
2022/03/01 01:52:12;;;;;;;8.27;1.70;;;;;;;;;;5067773;28;20082;-71
2022/03/01 01:54:40;;;;;;;7.97;2.10;;;;;;;;;;5067801;28;20048;-71
2022/03/01 01:57:14;;;;;;;5.47;1.50;;;;;;;;;;5068721;28;20047;-71
2022/03/01 01:59:41;;;;;;;7.17;2.20;;;;;;;;;;5072995;28;20467;-71
2022/03/01 02:02:10;;;;;;;4.43;1.43;;;;;;;;;;5072126;28;20044;-71
2022/03/01 02:04:37;;;;;;;8.67;1.80;;;;;;;;;;5072892;28;20027;-71
2022/03/01 02:07:03;;;;;;;4.63;2.03;;;;;;;;;;5072388;28;20479;-71
2022/03/01 02:09:30;;;;;;;5.60;1.80;;;;;;;;;;5070243;28;20044;-71
2022/03/01 02:11:57;;;;;;;5.70;2.50;;;;;;;;;;5067565;28;20041;-69
2022/03/01 02:14:23;;;;;;;28.27;7.73;;;;;;;;;;5067586;28;20099;-71
2022/03/01 02:16:50;;;;;;;13.97;5.70;;;;;;;;;;5067178;28;20040;-71
2022/03/01 02:19:17;;;;;;;12.67;4.10;;;;;;;;;;5070676;28;20464;-71
2022/03/01 02:21:48;;;;;;;8.10;2.63;;;;;;;;;;5092525;28;20069;-71
2022/03/01 02:24:14;;;;;;;5.50;1.90;;;;;;;;;;5092429;28;20028;-71
2022/03/01 02:26:41;;;;;;;6.27;2.03;;;;;;;;;;5078252;28;20334;-71
2022/03/01 02:29:08;;;;;;;5.60;1.77;;;;;;;;;;5072405;28;20425;-71
2022/03/01 02:31:35;;;;;;;13.77;2.27;;;;;;;;;;5070571;28;20409;-71
2022/03/01 02:34:02;;;;;;;4.10;1.93;;;;;;;;;;5067338;28;20025;-70
2022/03/01 02:36:29;;;;;;;4.77;1.60;;;;;;;;;;5066844;28;20032;-69
2022/03/01 02:38:55;;;;;;;4.47;1.60;;;;;;;;;;5066976;28;20103;-69
2022/03/01 02:41:24;;;;;;;8.63;3.60;;;;;;;;;;5068352;28;20028;-69
2022/03/01 02:43:51;;;;;;;7.77;2.70;;;;;;;;;;5072158;28;20029;-69
2022/03/01 02:46:18;;;;;;;4.43;2.27;;;;;;;;;;5071831;28;20379;-69
2022/03/01 02:48:44;;;;;;;5.07;2.17;;;;;;;;;;5074318;28;20036;-69
2022/03/01 02:51:11;;;;;;;4.50;1.73;;;;;;;;;;5076235;28;20027;-69
2022/03/01 02:53:38;;;;;;;6.70;2.13;;;;;;;;;;5074483;28;20021;-69
2022/03/01 02:56:05;;;;;;;9.07;2.73;;;;;;;;;;5070453;28;20087;-69
2022/03/01 02:58:31;;;;;;;8.10;2.10;;;;;;;;;;5071195;28;20023;-69
2022/03/01 03:00:58;;;;;;;3.07;1.57;;;;;;;;;;5071203;28;20539;-69
2022/03/01 03:03:25;;;;;;;5.00;1.60;;;;;;;;;;5071737;28;20430;-69
2022/03/01 03:05:51;;;;;;;12.07;1.83;;;;;;;;;;5075820;28;20031;-69
2022/03/01 03:08:18;;;;;;;2.97;1.60;;;;;;;;;;5075999;28;20123;-69
2022/03/01 03:10:45;;;;;;;5.83;1.80;;;;;;;;;;5075829;28;20028;-69
2022/03/01 03:13:11;;;;;;;4.80;2.37;;;;;;;;;;5075739;28;20380;-68
2022/03/01 03:15:38;;;;;;;5.37;1.77;;;;;;;;;;5074400;28;20114;-69
2022/03/01 03:18:05;;;;;;;4.93;2.07;;;;;;;;;;5070711;28;20028;-69
2022/03/01 03:20:34;;;;;;;7.87;2.57;;;;;;;;;;5070684;28;20040;-69
2022/03/01 03:23:01;;;;;;;4.80;2.43;;;;;;;;;;5070682;28;20035;-69
2022/03/01 03:25:27;;;;;;;5.17;2.37;;;;;;;;;;5070933;28;20074;-68
2022/03/01 03:27:54;;;;;;;6.33;2.53;;;;;;;;;;5075122;28;20487;-69
2022/03/01 03:30:21;;;;;;;8.40;1.93;;;;;;;;;;5075777;28;20108;-69
2022/03/01 03:32:47;;;;;;;9.73;3.03;;;;;;;;;;5075411;28;20027;-68
2022/03/01 03:35:14;;;;;;;7.27;2.33;;;;;;;;;;5075384;28;20024;-69
2022/03/01 03:37:41;;;;;;;7.13;2.70;;;;;;;;;;5074198;28;20462;-68
2022/03/01 03:40:08;;;;;;;8.20;2.37;;;;;;;;;;5070277;28;20055;-68
2022/03/01 03:42:35;;;;;;;4.00;2.00;;;;;;;;;;5070278;28;20112;-69
2022/03/01 03:45:02;;;;;;;4.93;2.23;;;;;;;;;;5070089;28;20032;-68
2022/03/01 03:47:29;;;;;;;6.83;2.30;;;;;;;;;;5069922;28;20047;-68
2022/03/01 03:49:56;;;;;;;6.97;2.17;;;;;;;;;;5075144;28;20123;-69
2022/03/01 03:52:22;;;;;;;3.73;1.70;;;;;;;;;;5075088;28;20432;-69
2022/03/01 03:54:50;;;;;;;4.10;2.10;;;;;;;;;;5075260;28;20021;-68
2022/03/01 03:57:17;;;;;;;5.50;2.17;;;;;;;;;;5074964;28;20020;-68
2022/03/01 03:59:44;;;;;;;8.07;2.07;;;;;;;;;;5073861;28;20103;-69
2022/03/01 04:02:11;;;;;;;10.63;2.77;;;;;;;;;;5069967;28;20032;-68
2022/03/01 04:04:37;;;;;;;6.33;1.97;;;;;;;;;;5070117;28;20085;-73
2022/03/01 04:07:05;;;;;;;11.97;2.63;;;;;;;;;;5070434;28;20066;-67
2022/03/01 04:09:32;;;;;;;5.93;2.20;;;;;;;;;;5069729;28;20036;-68
2022/03/01 04:11:58;;;;;;;6.13;2.30;;;;;;;;;;5074740;28;20061;-69
2022/03/01 04:14:25;;;;;;;8.80;2.37;;;;;;;;;;5075003;28;20020;-70
2022/03/01 04:16:52;;;;;;;4.03;2.40;;;;;;;;;;5074159;28;20467;-66
2022/03/01 04:19:18;;;;;;;5.77;2.47;;;;;;;;;;5074459;28;20075;-67
2022/03/01 04:21:45;;;;;;;10.80;2.30;;;;;;;;;;5074557;28;20025;-65
2022/03/01 04:24:12;;;;;;;7.43;2.37;;;;;;;;;;5069723;28;20020;-65
2022/03/01 04:26:39;;;;;;;8.13;2.77;;;;;;;;;;5069303;28;20411;-66
2022/03/01 04:29:05;;;;;;;4.90;2.33;;;;;;;;;;5069641;28;20394;-65
2022/03/01 04:31:32;;;;;;;4.50;2.03;;;;;;;;;;5069215;28;20213;-67
2022/03/01 04:33:59;;;;;;;5.67;2.10;;;;;;;;;;5073788;28;20020;-70
2022/03/01 04:36:25;;;;;;;4.53;2.03;;;;;;;;;;5073073;28;20121;-71
2022/03/01 04:38:52;;;;;;;4.23;1.63;;;;;;;;;;5074162;28;20031;-72
2022/03/01 04:41:19;;;;;;;5.80;2.17;;;;;;;;;;5074279;28;20456;-69
2022/03/01 04:43:45;;;;;;;4.07;2.03;;;;;;;;;;5074426;28;20032;-70
2022/03/01 04:46:12;;;;;;;7.20;2.17;;;;;;;;;;5084773;28;20383;-71
2022/03/01 04:48:39;;;;;;;5.10;2.20;;;;;;;;;;5068909;28;20024;-64
2022/03/01 04:51:06;;;;;;;8.77;2.93;;;;;;;;;;5069042;28;20036;-64
2022/03/01 04:53:33;;;;;;;4.67;2.20;;;;;;;;;;5068727;28;20103;-65
2022/03/01 04:56:00;;;;;;;5.43;2.20;;;;;;;;;;5072816;28;20039;-65
2022/03/01 04:58:26;;;;;;;7.37;4.00;;;;;;;;;;5074110;28;20021;-66
2022/03/01 05:00:54;;;;;;;5.80;2.00;;;;;;;;;;5073380;28;20590;-66
2022/03/01 05:03:22;;;;;;;4.30;1.83;;;;;;;;;;5073716;28;20012;-66
2022/03/01 05:05:48;;;;;;;5.40;1.77;;;;;;;;;;5073369;28;20048;-66
2022/03/01 05:08:15;;;;;;;3.80;1.90;;;;;;;;;;5069270;28;20028;-66
2022/03/01 05:10:42;;;;;;;4.50;2.07;;;;;;;;;;5068068;28;20088;-66
2022/03/01 05:13:09;;;;;;;6.40;2.13;;;;;;;;;;5068632;28;20494;-65
2022/03/01 05:15:35;;;;;;;3.70;1.90;;;;;;;;;;5068462;28;20024;-66
2022/03/01 05:18:02;;;;;;;3.73;1.97;;;;;;;;;;5071936;28;20029;-65
2022/03/01 05:20:29;;;;;;;3.70;1.77;;;;;;;;;;5084683;28;20081;-66
2022/03/01 05:22:55;;;;;;;3.63;1.63;;;;;;;;;;5093707;28;20459;-66
2022/03/01 05:25:23;;;;;;;3.57;1.80;;;;;;;;;;5093777;28;20050;-66
2022/03/01 05:27:51;;;;;;;3.77;1.57;;;;;;;;;;5074773;28;20116;-65
2022/03/01 05:30:19;;;;;;;4.03;1.80;;;;;;;;;;5068171;28;20044;-64
2022/03/01 05:32:47;;;;;;;4.73;2.00;;;;;;;;;;5068293;28;20025;-65
2022/03/01 05:35:15;;;;;;;3.80;1.67;;;;;;;;;;5068035;28;20034;-66
2022/03/01 05:37:43;;;;;;;5.10;2.60;;;;;;;;;;5068122;28;20028;-64
2022/03/01 05:40:12;;;;;;;3.53;1.87;;;;;;;;;;5071202;28;20080;-65
2022/03/01 05:42:39;;;;;;;4.80;1.60;;;;;;;;;;5072411;28;20125;-64
2022/03/01 05:45:06;;;;;;;8.33;3.40;;;;;;;;;;5072455;28;20074;-66
2022/03/01 05:47:33;;;;;;;9.07;3.70;;;;;;;;;;5071208;28;20651;-66
2022/03/01 05:50:00;;;;;;;9.70;3.10;;;;;;;;;;5070948;28;20334;-67
2022/03/01 05:52:27;;;;;;;6.93;2.60;;;;;;;;;;5066699;28;20064;-67
2022/03/01 05:54:53;;;;;;;7.27;2.50;;;;;;;;;;5066321;28;20261;-67
2022/03/01 05:57:23;;;;;;;9.47;2.87;;;;;;;;;;5066096;28;20321;-66
2022/03/01 05:59:50;;;;;;;5.73;2.67;;;;;;;;;;5066124;28;20738;-67
2022/03/01 06:02:17;;;;;;;6.73;2.50;;;;;;;;;;5069287;28;20356;-67
2022/03/01 06:04:44;;;;;;;5.43;2.00;;;;;;;;;;5072645;28;20024;-67
2022/03/01 06:07:11;;;;;;;4.63;1.90;;;;;;;;;;5071799;28;20265;-67
2022/03/01 06:09:37;;;;;;;8.37;1.77;;;;;;;;;;5072596;28;20281;-67
2022/03/01 06:12:04;;;;;;;6.20;2.40;;;;;;;;;;5072539;28;20261;-66
2022/03/01 06:14:31;;;;;;;3.97;1.70;;;;;;;;;;5068677;28;20281;-67
2022/03/01 06:16:58;;;;;;;4.90;2.17;;;;;;;;;;5066921;28;20268;-67
2022/03/01 06:19:24;;;;;;;4.13;1.70;;;;;;;;;;5067058;28;20289;-67
2022/03/01 06:21:52;;;;;;;4.70;1.83;;;;;;;;;;5066546;28;20740;-68
2022/03/01 06:24:19;;;;;;;4.67;1.53;;;;;;;;;;5069750;28;20303;-67
2022/03/01 06:26:46;;;;;;;3.30;1.63;;;;;;;;;;5072412;28;20258;-66
2022/03/01 06:29:13;;;;;;;6.17;1.87;;;;;;;;;;5072032;28;20299;-66
2022/03/01 06:31:39;;;;;;;6.87;2.53;;;;;;;;;;5072308;28;20255;-66
2022/03/01 06:34:06;;;;;;;4.60;2.50;;;;;;;;;;5072222;28;20751;-67
2022/03/01 06:36:33;;;;;;;4.07;1.93;;;;;;;;;;5068682;28;20332;-67
2022/03/01 06:38:59;;;;;;;4.17;2.13;;;;;;;;;;5066585;28;20311;-66
2022/03/01 06:41:26;;;;;;;4.43;2.10;;;;;;;;;;5067059;28;20296;-66
2022/03/01 06:43:53;;;;;;;4.13;1.53;;;;;;;;;;5066922;28;20256;-67
2022/03/01 06:46:20;;;;;;;3.77;1.87;;;;;;;;;;5069619;28;20257;-67
2022/03/01 06:48:47;;;;;;;4.13;2.10;;;;;;;;;;5071590;28;20297;-66
2022/03/01 06:51:14;;;;;;;9.10;2.60;;;;;;;;;;5072008;28;20280;-67
2022/03/01 06:53:41;;;;;;;7.37;1.97;;;;;;;;;;5071627;28;20755;-68
2022/03/01 06:56:08;;;;;;;15.13;2.10;;;;;;;;;;5072160;28;20340;-67
2022/03/01 06:58:34;;;;;;;4.37;2.10;;;;;;;;;;5069284;28;21006;-66
2022/03/01 07:01:02;;;;;;;7.00;2.03;;;;;;;;;;5066417;28;20276;-67
2022/03/01 07:03:29;;;;;;;5.27;2.13;;;;;;;;;;5066397;28;20265;-67
2022/03/01 07:05:55;;;;;;;4.30;2.00;;;;;;;;;;5066980;28;20296;-66
2022/03/01 07:08:23;;;;;;;5.80;2.37;;;;;;;;;;5069236;28;20646;-67
2022/03/01 07:10:53;;;;;;;5.63;1.90;;;;;;;;;;5071782;28;20759;-66
2022/03/01 07:13:20;;;;;;;4.17;1.57;;;;;;;;;;5071483;28;20774;-67
2022/03/01 07:15:46;;;;;;;5.13;1.73;;;;;;;;;;5071792;28;20265;-66
2022/03/01 07:18:13;;;;;;;4.37;2.20;;;;;;;;;;5071931;28;20390;-66
2022/03/01 07:20:40;;;;;;;3.23;1.47;;;;;;;;;;5068971;28;20273;-67
2022/03/01 07:23:07;;;;;;;4.47;2.00;;;;;;;;;;5066630;28;20280;-66
2022/03/01 07:25:33;;;;;;;3.00;1.43;;;;;;;;;;5065684;28;20274;-66
2022/03/01 07:28:00;;;;;;;5.57;1.80;;;;;;;;;;5066567;28;20249;-66
2022/03/01 07:30:28;;;;;;;8.33;2.50;;;;;;;;;;5068665;28;20338;-66
2022/03/01 07:32:58;;;;;;;2.70;1.40;;;;;;;;;;5071661;28;20764;-66
2022/03/01 07:35:25;;;;;;;2.93;1.47;;;;;;;;;;5074785;28;20253;-66
2022/03/01 07:37:52;;;;;;;2.73;1.30;;;;;;;;;;5075102;28;20265;-66
2022/03/01 07:40:20;;;;;;;4.70;1.73;;;;;;;;;;5075049;28;20731;-66
2022/03/01 07:42:48;;;;;;;3.30;1.87;;;;;;;;;;5072612;28;20853;-66
2022/03/01 07:45:15;;;;;;;4.00;1.30;;;;;;;;;;5069947;28;20366;-67
2022/03/01 07:47:42;;;;;;;3.10;1.60;;;;;;;;;;5069681;28;20258;-67
2022/03/01 07:50:09;;;;;;;3.37;1.60;;;;;;;;;;5069495;28;20766;-67
2022/03/01 07:52:36;;;;;;;2.93;1.60;;;;;;;;;;5071815;28;20300;-66
2022/03/01 07:55:02;;;;;;;5.00;1.73;;;;;;;;;;5074974;28;20585;-66
2022/03/01 07:57:29;;;;;;;2.77;1.50;;;;;;;;;;5074920;28;20267;-66
2022/03/01 07:59:56;;;;;;;5.10;2.27;;;;;;;;;;5074781;28;20743;-66
2022/03/01 08:02:23;;;;;;;2.57;1.50;;;;;;;;;;5074730;28;20384;-66
2022/03/01 08:04:50;;;;;;;3.90;1.73;;;;;;;;;;5072419;28;20304;-66
2022/03/01 08:07:16;;;;;;;2.67;1.43;;;;;;;;;;5069812;28;20250;-66
2022/03/01 08:09:44;;;;;;;2.07;1.10;;;;;;;;;;5069354;28;20683;-66
2022/03/01 08:12:11;;;;;;;2.57;1.37;;;;;;;;;;5069558;28;20258;-66
2022/03/01 08:14:38;;;;;;;4.60;1.67;;;;;;;;;;5070923;28;20348;-66
2022/03/01 08:17:04;;;;;;;5.00;1.90;;;;;;;;;;5074494;28;20257;-66
2022/03/01 08:19:31;;;;;;;3.00;1.17;;;;;;;;;;5074650;28;20290;-66
2022/03/01 08:21:58;;;;;;;2.77;1.53;;;;;;;;;;5074565;28;20293;-66
2022/03/01 08:24:24;;;;;;;2.83;1.60;;;;;;;;;;5074504;28;20257;-66
2022/03/01 08:26:51;;;;;;;3.37;1.50;;;;;;;;;;5071837;28;20265;-66
2022/03/01 08:29:18;;;;;;;4.77;1.90;;;;;;;;;;5069198;28;20343;-66
2022/03/01 08:31:46;;;;;;;2.77;1.53;;;;;;;;;;5069303;28;20258;-66
2022/03/01 08:34:13;;;;;;;2.33;1.40;;;;;;;;;;5068980;28;20263;-66
2022/03/01 08:36:40;;;;;;;3.87;1.60;;;;;;;;;;5070446;28;20285;-66
2022/03/01 08:39:07;;;;;;;2.50;1.40;;;;;;;;;;5073888;28;20268;-66
2022/03/01 08:41:33;;;;;;;3.43;1.13;;;;;;;;;;5073822;28;20261;-66
2022/03/01 08:44:00;;;;;;;3.13;1.73;;;;;;;;;;5074191;28;20310;-66
2022/03/01 08:46:27;;;;;;;1.77;1.03;;;;;;;;;;5073291;28;20285;-66
2022/03/01 08:48:54;;;;;;;2.17;1.33;;;;;;;;;;5072341;28;20340;-66
2022/03/01 08:51:21;;;;;;;4.43;1.67;;;;;;;;;;5068087;28;20628;-66
2022/03/01 08:53:49;;;;;;;4.27;1.70;;;;;;;;;;5068763;28;20265;-66
2022/03/01 08:56:16;;;;;;;3.30;1.40;;;;;;;;;;5068282;28;20265;-66
2022/03/01 08:58:43;;;;;;;3.30;1.47;;;;;;;;;;5069442;28;20265;-66
2022/03/01 09:01:10;;;;;;;2.60;1.40;;;;;;;;;;5073877;28;20341;-66
2022/03/01 09:03:37;;;;;;;3.10;1.77;;;;;;;;;;5073781;28;20254;-66
2022/03/01 09:06:05;;;;;;;2.33;1.40;;;;;;;;;;5073753;28;20763;-66
2022/03/01 09:08:33;;;;;;;2.63;1.43;;;;;;;;;;5073098;28;20434;-66
2022/03/01 09:11:00;;;;;;;2.40;1.40;;;;;;;;;;5071608;28;20866;-66
2022/03/01 09:13:27;;;;;;;3.30;1.30;;;;;;;;;;5068493;28;20663;-66
2022/03/01 09:15:53;;;;;;;5.03;1.80;;;;;;;;;;5068563;28;20749;-65
2022/03/01 09:18:21;;;;;;;2.53;1.30;;;;;;;;;;5067702;28;20265;-65
2022/03/01 09:20:48;;;;;;;2.50;1.43;;;;;;;;;;5069114;28;20265;-65
2022/03/01 09:23:15;;;;;;;2.67;1.50;;;;;;;;;;5073450;28;20333;-65
2022/03/01 09:25:42;;;;;;;2.50;1.50;;;;;;;;;;5072919;28;20254;-67
2022/03/01 09:28:08;;;;;;;2.53;1.43;;;;;;;;;;5072907;28;20347;-66
2022/03/01 09:30:35;;;;;;;1.67;1.10;;;;;;;;;;5073375;28;20733;-65
2022/03/01 09:33:02;;;;;;;2.50;1.40;;;;;;;;;;5071840;28;20261;-65
2022/03/01 09:35:29;;;;;;;1.77;1.13;;;;;;;;;;5068101;28;20292;-66
2022/03/01 09:37:56;;;;;;;2.03;1.10;;;;;;;;;;5067930;28;20258;-66
2022/03/01 09:40:22;;;;;;;2.93;1.50;;;;;;;;;;5067607;28;20747;-66
2022/03/01 09:42:59;;;;;;;2.43;1.30;;;;;;;;;;5068223;28;20611;-66
2022/03/01 09:45:25;;;;;;;2.17;1.17;;;;;;;;;;5072969;28;20261;-66
2022/03/01 09:47:52;;;;;;;2.17;1.20;;;;;;;;;;5073047;28;20763;-65
2022/03/01 09:50:27;;;;;;;2.97;1.40;;;;;;;;;;5072528;28;20627;-66
2022/03/01 09:52:54;;;;;;;;;;;;;;;;;;5072801;28;20356;-66
2022/03/01 09:55:21;;;;;;;2.73;1.40;;;;;;;;;;5071164;28;19973;-66
2022/03/01 09:57:47;;;;;;;2.50;1.23;;;;;;;;;;5067406;28;20261;-66
2022/03/01 10:00:14;;;;;;;2.63;1.20;;;;;;;;;;5066890;28;20261;-66
2022/03/01 10:02:42;;;;;;;5.60;1.30;;;;;;;;;;5067164;28;20767;-66
2022/03/01 10:05:10;;;;;;;2.17;1.23;;;;;;;;;;5068398;28;20311;-66
2022/03/01 10:07:38;;;;;;;2.27;1.17;;;;;;;;;;5072500;28;20257;-66
2022/03/01 10:10:05;;;;;;;2.33;1.10;;;;;;;;;;5072283;28;20342;-66
2022/03/01 10:12:32;;;;;;;2.70;1.40;;;;;;;;;;5071930;28;20376;-65
2022/03/01 10:15:02;;;;;;;2.63;1.20;;;;;;;;;;5072305;28;20322;-66
2022/03/01 10:17:43;;;;;;;1.70;1.03;;;;;;;;;;5070863;28;20750;-65
2022/03/01 10:20:10;;;;;;;3.00;1.47;;;;;;;;;;5067343;28;20257;-66
2022/03/01 10:22:52;;;;;;;1.90;1.07;;;;;;;;;;5066731;28;20269;-66
2022/03/01 10:25:24;;;;;;;2.17;1.03;;;;;;;;;;5066804;28;20277;-66
2022/03/01 10:27:52;;;;;;;2.53;1.10;;;;;;;;;;5069184;28;20302;-66
2022/03/01 10:30:26;;;;;;;2.53;1.17;;;;;;;;;;5072426;28;20376;-65
2022/03/01 10:33:13;;;;;;;1.65;1.10;;;;;;;;;;5072314;28;20711;-65
2022/03/01 10:35:41;;;;;;;2.17;1.37;;;;;;;;;;5072218;28;20028;-65
2022/03/01 10:38:08;;;;;;;2.97;1.50;;;;;;;;;;5071951;28;20338;-66
2022/03/01 10:40:35;;;;;;;1.83;1.30;;;;;;;;;;5068585;28;20289;-65
2022/03/01 10:43:08;;;;;;;1.57;1.00;;;;;;;;;;5066892;28;20289;-65
2022/03/01 10:45:36;;;;;;;1.50;0.83;;;;;;;;;;5067253;28;20268;-66
2022/03/01 10:48:04;;;;;;;2.63;1.47;;;;;;;;;;5066803;28;20759;-65
2022/03/01 10:50:31;;;;;;;2.23;1.13;;;;;;;;;;5069437;28;20435;-65
2022/03/01 10:52:58;;;;;;;1.33;1.00;;;;;;;;;;5072012;28;20348;-65
2022/03/01 10:55:27;;;;;;;1.43;0.80;;;;;;;;;;5071645;28;20254;-66
2022/03/01 10:58:00;;;;;;;1.70;1.00;;;;;;;;;;5072072;28;20303;-65
2022/03/01 11:00:27;;;;;;;1.87;1.00;;;;;;;;;;5072267;28;20260;-65
2022/03/01 11:02:54;;;;;;;1.60;0.90;;;;;;;;;;5067958;28;20615;-66
2022/03/01 11:05:21;;;;;;;1.70;0.93;;;;;;;;;;5066810;28;20732;-65
2022/03/01 11:07:50;;;;;;;1.27;0.80;;;;;;;;;;5066501;28;20263;-65
2022/03/01 11:10:18;;;;;;;2.17;1.00;;;;;;;;;;5069484;28;20645;-65
2022/03/01 11:12:48;;;;;;;1.47;0.90;;;;;;;;;;5073799;28;20261;-65
2022/03/01 11:15:19;;;;;;;2.40;1.20;;;;;;;;;;5075501;28;20290;-65
2022/03/01 11:18:24;;;;;;;3.30;1.60;;;;;;;;;;5075755;28;20261;-65
2022/03/01 11:20:51;;;;;;;3.07;1.57;;;;;;;;;;5013851;28;20263;-65
2022/03/01 11:23:22;;;;;;;2.50;1.40;;;;;;;;;;5013861;28;20260;-65
2022/03/01 11:25:49;;;;;;;3.20;1.90;;;;;;;;;;5039675;28;20277;-66
2022/03/01 11:28:18;;;;;;;2.20;1.43;;;;;;;;;;5069918;28;20335;-66
2022/03/01 11:30:51;;;;;;;1.60;1.20;;;;;;;;;;5070309;28;20306;-65
2022/03/01 11:33:27;;;;;;;3.00;1.40;;;;;;;;;;5070228;28;20265;-65
2022/03/01 11:35:55;;;;;;;2.10;1.30;;;;;;;;;;5075363;28;20732;-65
2022/03/01 11:38:26;;;;;;;3.63;1.23;;;;;;;;;;5075220;28;20254;-66
2022/03/01 11:40:55;;;;;;;2.23;1.30;;;;;;;;;;5075331;28;20257;-65
2022/03/01 11:43:26;;;;;;;2.50;1.40;;;;;;;;;;5075396;28;20264;-66
2022/03/01 11:46:01;;;;;;;4.73;1.50;;;;;;;;;;5074565;28;20331;-65
2022/03/01 11:48:29;;;;;;;1.95;1.13;;;;;;;;;;5069870;28;20328;-66
2022/03/01 11:50:57;;;;;;;4.97;1.37;;;;;;;;;;5069924;28;20032;-66
2022/03/01 11:53:26;;;;;;;2.13;1.20;;;;;;;;;;5069815;28;20360;-65
2022/03/01 11:55:55;;;;;;;2.73;1.20;;;;;;;;;;5070354;28;20747;-66
2022/03/01 11:58:22;;;;;;;2.87;1.47;;;;;;;;;;5075027;28;20336;-65
2022/03/01 12:00:50;;;;;;;2.07;1.00;;;;;;;;;;5074769;28;20253;-65
2022/03/01 12:03:23;;;;;;;2.60;1.40;;;;;;;;;;5074832;28;20277;-65
2022/03/01 12:05:50;;;;;;;4.93;1.37;;;;;;;;;;5075086;28;20262;-65
2022/03/01 12:08:17;;;;;;;5.23;1.00;;;;;;;;;;5073489;28;20735;-65
2022/03/01 12:10:53;;;;;;;3.23;1.07;;;;;;;;;;5069611;28;20268;-66
2022/03/01 12:13:21;;;;;;;2.07;1.20;;;;;;;;;;5069212;28;20273;-66
2022/03/01 12:15:57;;;;;;;2.57;1.03;;;;;;;;;;5069148;28;20338;-66
2022/03/01 12:18:28;;;;;;;2.23;1.23;;;;;;;;;;5070649;28;20273;-65
2022/03/01 12:21:00;;;;;;;2.40;1.23;;;;;;;;;;5073187;28;20250;-65
2022/03/01 12:23:29;;;;;;;2.20;1.03;;;;;;;;;;5074647;28;20280;-65
2022/03/01 12:25:56;;;;;;;3.83;1.50;;;;;;;;;;5074745;28;20261;-65
2022/03/01 12:28:23;;;;;;;2.60;1.33;;;;;;;;;;5073671;28;20811;-65
2022/03/01 12:30:50;;;;;;;5.70;1.20;;;;;;;;;;5072001;28;20270;-65
2022/03/01 12:33:18;;;;;;;2.83;1.40;;;;;;;;;;5069062;28;20503;-65
2022/03/01 12:35:55;;;;;;;3.37;1.20;;;;;;;;;;5069111;28;20261;-66
2022/03/01 12:38:22;;;;;;;3.27;1.50;;;;;;;;;;5069224;28;20249;-66
2022/03/01 12:40:48;;;;;;;5.97;1.77;;;;;;;;;;5070617;28;20261;-65
2022/03/01 12:43:15;;;;;;;2.97;1.20;;;;;;;;;;5074168;28;20269;-65
2022/03/01 12:45:45;;;;;;;3.77;1.27;;;;;;;;;;5074293;28;20280;-65
2022/03/01 12:48:13;;;;;;;6.77;2.40;;;;;;;;;;5074185;28;20256;-65
2022/03/01 12:50:47;;;;;;;2.90;1.23;;;;;;;;;;5073714;28;20278;-65
2022/03/01 12:53:15;;;;;;;3.33;1.40;;;;;;;;;;5070062;28;20356;-65
2022/03/01 12:55:42;;;;;;;3.23;1.30;;;;;;;;;;5068829;28;20336;-66
2022/03/01 12:58:20;;;;;;;6.93;1.37;;;;;;;;;;5068454;28;20265;-65
2022/03/01 13:00:47;;;;;;;10.17;3.17;;;;;;;;;;5068598;28;20269;-65
2022/03/01 13:03:24;;;;;;;8.67;2.80;;;;;;;;;;5071129;28;20269;-65
2022/03/01 13:05:51;;;;;;;28.00;12.33;;;;;;;;;;5073734;28;20253;-65
2022/03/01 13:08:18;;;;;;;24.83;10.57;;;;;;;;;;5073848;28;20258;-65
2022/03/01 13:10:44;;;;;;;20.03;9.47;;;;;;;;;;5073334;28;20441;-65
2022/03/01 13:13:13;;;;;;;19.63;5.90;;;;;;;;;;5073657;28;20253;-65
2022/03/01 13:15:46;;;;;;;9.77;4.50;;;;;;;;;;5069956;28;20249;-65
2022/03/01 13:18:13;;;;;;;12.23;4.43;;;;;;;;;;5068142;28;20277;-65
2022/03/01 13:20:40;;;;;;;4.00;2.30;;;;;;;;;;5068474;28;20600;-65
2022/03/01 13:23:08;;;;;;;7.43;2.83;;;;;;;;;;5068020;28;20406;-65
2022/03/01 13:25:36;;;;;;;3.33;1.70;;;;;;;;;;5071172;28;20728;-65
2022/03/01 13:28:04;;;;;;;3.83;2.20;;;;;;;;;;5073576;28;20302;-65
2022/03/01 13:30:31;;;;;;;4.90;2.13;;;;;;;;;;5072549;28;20835;-66
2022/03/01 13:33:10;;;;;;;3.97;2.30;;;;;;;;;;5072680;28;20300;-65
2022/03/01 13:35:37;;;;;;;6.63;2.50;;;;;;;;;;5072652;28;20739;-65
2022/03/01 13:38:06;;;;;;;5.57;2.80;;;;;;;;;;5068554;28;20249;-65
2022/03/01 13:40:33;;;;;;;4.97;2.73;;;;;;;;;;5067429;28;20281;-65
2022/03/01 13:43:07;;;;;;;5.10;3.17;;;;;;;;;;5067250;28;20319;-66
2022/03/01 13:45:34;;;;;;;10.90;3.50;;;;;;;;;;5067470;28;20253;-65
2022/03/01 13:48:11;;;;;;;6.73;3.27;;;;;;;;;;5071033;28;20821;-66
2022/03/01 13:50:39;;;;;;;5.47;3.33;;;;;;;;;;5072888;28;20609;-65
2022/03/01 13:53:10;;;;;;;7.77;4.07;;;;;;;;;;5072731;28;20270;-66
2022/03/01 13:55:37;;;;;;;12.70;6.73;;;;;;;;;;5072903;28;20256;-66
2022/03/01 13:58:04;;;;;;;9.00;5.73;;;;;;;;;;5072386;28;20260;-66
2022/03/01 14:00:37;;;;;;;8.57;5.30;;;;;;;;;;5067043;28;20348;-66
2022/03/01 14:03:12;;;;;;;16.93;5.80;;;;;;;;;;5067285;28;20723;-66
2022/03/01 14:05:41;;;;;;;16.38;6.07;;;;;;;;;;5066874;28;20257;-67
2022/03/01 14:08:13;;;;;;;7.43;4.30;;;;;;;;;;5067001;28;20132;-66
2022/03/01 14:10:52;;;;;;;8.00;3.93;;;;;;;;;;5072153;28;20363;-66
2022/03/01 14:13:21;;;;;;;6.37;2.63;;;;;;;;;;5072729;28;20616;-66
2022/03/01 14:15:52;;;;;;;3.83;2.17;;;;;;;;;;5071856;28;20333;-66
2022/03/01 14:18:20;;;;;;;7.43;2.97;;;;;;;;;;5072627;28;20273;-66
2022/03/01 14:20:50;;;;;;;7.57;3.13;;;;;;;;;;5071354;28;20271;-66
2022/03/01 14:23:19;;;;;;;4.00;2.40;;;;;;;;;;5066717;28;20857;-66
2022/03/01 14:25:46;;;;;;;5.73;2.30;;;;;;;;;;5067042;28;20351;-66
2022/03/01 14:28:13;;;;;;;4.50;1.97;;;;;;;;;;5066527;28;20021;-66
2022/03/01 14:30:40;;;;;;;9.20;2.33;;;;;;;;;;5067460;28;20028;-66
2022/03/01 14:33:07;;;;;;;3.43;1.90;;;;;;;;;;5072339;28;20503;-66
2022/03/01 14:35:34;;;;;;;3.83;2.23;;;;;;;;;;5071618;28;20056;-67
2022/03/01 14:38:01;;;;;;;3.17;1.80;;;;;;;;;;5072240;28;20024;-66
2022/03/01 14:40:28;;;;;;;13.80;2.10;;;;;;;;;;5072244;28;20024;-66
2022/03/01 14:42:54;;;;;;;5.20;2.07;;;;;;;;;;5070249;28;20027;-67
2022/03/01 14:45:22;;;;;;;4.50;2.00;;;;;;;;;;5066030;28;20029;-66
2022/03/01 14:47:49;;;;;;;5.00;2.10;;;;;;;;;;5066681;28;20032;-67